Time;durP1;ratioP1;P1;durP2;ratioP2;P2;SDS_P1;SDS_P2;PMS_P1;PMS_P2;Temp;Humidity;BMP_temperature;BMP_pressure;BME280_temperature;BME280_humidity;BME280_pressure;Samples;Min_cycle;Max_cycle;Signal;HPM_P1;HPM_P2
2022/03/12 00:01:31;;;;;;;12.60;6.38;;;11.50;28.40;;;;;;5021898;28;20405;-42
2022/03/12 00:04:00;;;;;;;12.85;5.85;;;11.50;28.30;;;;;;5018130;28;20060;-42
2022/03/12 00:06:29;;;;;;;18.15;7.03;;;11.50;28.40;;;;;;5022092;28;20493;-42
2022/03/12 00:08:57;;;;;;;21.70;7.10;;;11.50;28.30;;;;;;5021178;28;20057;-42
2022/03/12 00:11:26;;;;;;;12.02;6.57;;;11.50;28.00;;;;;;5020567;28;20049;-45
2022/03/12 00:13:57;;;;;;;11.70;6.85;;;11.40;28.10;;;;;;5019171;28;20057;-42
2022/03/12 00:16:26;;;;;;;13.23;6.78;;;11.40;28.20;;;;;;5021050;28;20057;-43
2022/03/12 00:18:56;;;;;;;17.13;6.80;;;11.40;28.10;;;;;;5020928;28;20745;-43
2022/03/12 00:21:23;;;;;;;13.43;6.88;;;11.40;28.10;;;;;;5022704;28;20198;-42
2022/03/12 00:23:56;;;;;;;15.10;6.75;;;11.40;28.20;;;;;;5019881;28;20107;-42
2022/03/12 00:26:24;;;;;;;10.25;6.13;;;11.40;28.20;;;;;;5021023;28;20417;-43
2022/03/12 00:28:54;;;;;;;11.27;6.05;;;11.30;28.30;;;;;;5020263;28;20394;-42
2022/03/12 00:31:22;;;;;;;12.55;7.15;;;11.30;28.30;;;;;;5020864;28;20417;-42
2022/03/12 00:33:50;;;;;;;16.42;6.95;;;11.30;28.40;;;;;;5018786;28;20421;-42
2022/03/12 00:36:18;;;;;;;13.38;6.97;;;11.30;28.50;;;;;;5021339;28;20057;-43
2022/03/12 00:38:46;;;;;;;13.82;6.47;;;11.30;28.40;;;;;;5022692;28;20072;-42
2022/03/12 00:41:16;;;;;;;20.45;7.28;;;11.30;28.40;;;;;;5020708;28;20058;-43
2022/03/12 00:43:43;;;;;;;12.15;6.45;;;11.30;28.40;;;;;;5019957;28;20766;-42
2022/03/12 00:46:11;;;;;;;13.27;6.93;;;11.30;28.50;;;;;;5022063;28;20076;-43
2022/03/12 00:48:39;;;;;;;14.70;7.68;;;11.30;28.40;;;;;;5020156;28;20057;-44
2022/03/12 00:51:07;;;;;;;14.30;6.85;;;11.30;28.40;;;;;;5020769;28;20061;-44
2022/03/12 00:53:36;;;;;;;11.65;6.57;;;11.30;28.30;;;;;;5019770;28;20518;-42
2022/03/12 00:56:04;;;;;;;10.57;6.28;;;11.20;28.40;;;;;;5019898;28;20326;-45
2022/03/12 00:58:34;;;;;;;13.40;6.25;;;11.30;28.50;;;;;;5021276;28;20053;-42
2022/03/12 01:01:02;;;;;;;13.20;6.78;;;11.20;28.50;;;;;;5021093;28;20064;-43
2022/03/12 01:03:29;;;;;;;16.63;6.63;;;11.30;28.60;;;;;;5021005;28;20822;-42
2022/03/12 01:06:01;;;;;;;13.23;6.50;;;11.30;28.70;;;;;;5017495;28;20061;-42
2022/03/12 01:08:30;;;;;;;12.13;6.38;;;11.30;28.70;;;;;;5018097;28;20074;-45
2022/03/12 01:10:59;;;;;;;12.30;6.55;;;11.30;28.60;;;;;;5021429;28;20057;-42
2022/03/12 01:13:28;;;;;;;20.13;7.72;;;11.30;28.70;;;;;;5019191;28;20592;-42
2022/03/12 01:15:57;;;;;;;11.93;6.72;;;11.20;28.70;;;;;;5019595;28;20068;-43
2022/03/12 01:18:26;;;;;;;12.20;6.10;;;11.20;28.70;;;;;;5020217;28;20805;-43
2022/03/12 01:20:54;;;;;;;16.05;7.55;;;11.20;28.70;;;;;;5020016;28;20414;-43
2022/03/12 01:23:23;;;;;;;17.27;7.10;;;11.20;28.70;;;;;;5021552;28;20053;-43
2022/03/12 01:25:53;;;;;;;13.05;6.28;;;11.20;28.60;;;;;;5019058;28;20125;-42
2022/03/12 01:28:21;;;;;;;18.88;6.75;;;11.20;28.70;;;;;;5020331;28;20049;-48
2022/03/12 01:30:49;;;;;;;11.63;6.60;;;11.20;28.70;;;;;;5020159;28;20060;-42
2022/03/12 01:33:19;;;;;;;10.90;6.53;;;11.20;28.70;;;;;;5021199;28;20057;-42
2022/03/12 01:35:46;;;;;;;11.50;6.32;;;11.20;28.70;;;;;;5018053;28;20053;-42
2022/03/12 01:38:14;;;;;;;12.18;6.38;;;11.20;28.70;;;;;;5020385;28;20080;-42
2022/03/12 01:40:42;;;;;;;12.48;6.88;;;11.20;28.70;;;;;;5021250;28;20077;-44
2022/03/12 01:43:09;;;;;;;14.88;6.50;;;11.20;28.80;;;;;;5020734;28;20086;-43
2022/03/12 01:45:37;;;;;;;11.48;6.53;;;11.10;28.70;;;;;;5016750;28;20057;-43
2022/03/12 01:48:08;;;;;;;17.60;6.65;;;11.20;28.70;;;;;;5021011;28;20053;-43
2022/03/12 01:50:38;;;;;;;16.08;7.35;;;11.20;28.70;;;;;;5022091;28;20057;-44
2022/03/12 01:53:08;;;;;;;12.10;6.90;;;11.20;28.70;;;;;;5025215;28;20057;-42
2022/03/12 01:55:39;;;;;;;15.00;6.85;;;11.10;28.80;;;;;;5021667;28;20054;-42
2022/03/12 01:58:08;;;;;;;17.55;6.53;;;11.10;28.90;;;;;;5024401;28;20061;-42
2022/03/12 02:00:44;;;;;;;11.82;6.40;;;11.10;28.80;;;;;;5023826;28;20053;-43
2022/03/12 02:03:12;;;;;;;34.92;6.65;;;11.10;29.00;;;;;;5023714;28;20049;-43
2022/03/12 02:05:42;;;;;;;12.52;7.50;;;11.10;28.90;;;;;;5021148;28;20053;-42
2022/03/12 02:08:13;;;;;;;13.07;7.05;;;11.10;28.80;;;;;;5022584;28;20807;-42
2022/03/12 02:10:41;;;;;;;12.13;6.25;;;11.10;28.80;;;;;;5025640;28;20057;-42
2022/03/12 02:13:09;;;;;;;12.43;7.10;;;11.10;28.80;;;;;;5024354;28;20048;-43
2022/03/12 02:15:36;;;;;;;17.50;7.28;;;11.10;28.80;;;;;;5021986;28;20516;-42
2022/03/12 02:18:04;;;;;;;16.90;6.88;;;11.10;28.80;;;;;;5025293;28;20520;-42
2022/03/12 02:20:32;;;;;;;10.82;5.90;;;11.00;28.80;;;;;;5023332;28;20058;-42
2022/03/12 02:23:01;;;;;;;16.50;6.53;;;11.00;28.90;;;;;;5025579;28;20052;-45
2022/03/12 02:25:32;;;;;;;15.60;7.20;;;11.00;28.90;;;;;;5020347;28;20064;-42
2022/03/12 02:28:01;;;;;;;13.32;6.97;;;11.00;28.90;;;;;;5024601;28;20057;-42
2022/03/12 02:30:34;;;;;;;10.90;6.40;;;10.90;28.90;;;;;;5023877;28;20053;-42
2022/03/12 02:33:03;;;;;;;10.93;6.63;;;10.90;28.90;;;;;;5024727;28;20064;-43
2022/03/12 02:35:35;;;;;;;10.07;6.47;;;10.90;29.00;;;;;;5019204;28;20056;-42
2022/03/12 02:38:03;;;;;;;11.30;6.63;;;10.90;29.10;;;;;;5020115;28;20061;-42
2022/03/12 02:40:33;;;;;;;10.18;6.95;;;10.90;29.10;;;;;;5023710;28;20053;-45
2022/03/12 02:43:01;;;;;;;11.02;6.53;;;10.90;29.20;;;;;;5024683;28;20064;-43
2022/03/12 02:45:30;;;;;;;10.95;6.70;;;10.90;29.20;;;;;;5023260;28;20413;-43
2022/03/12 02:47:58;;;;;;;14.27;6.38;;;10.90;29.30;;;;;;5019530;28;20058;-43
2022/03/12 02:50:26;;;;;;;10.20;6.78;;;10.90;29.30;;;;;;5019765;28;20552;-46
2022/03/12 02:52:54;;;;;;;10.88;6.05;;;10.90;29.50;;;;;;5024948;28;20049;-42
2022/03/12 02:55:24;;;;;;;11.63;6.85;;;10.90;29.50;;;;;;5023142;28;20049;-42
2022/03/12 02:57:53;;;;;;;17.23;6.68;;;10.90;29.50;;;;;;5024497;28;20060;-42
2022/03/12 03:00:21;;;;;;;12.82;7.15;;;10.90;29.30;;;;;;5020577;28;20490;-42
2022/03/12 03:02:53;;;;;;;13.60;5.90;;;10.90;29.30;;;;;;5025027;28;20053;-42
2022/03/12 03:05:36;;;;;;;15.82;6.82;;;10.90;29.40;;;;;;5020560;28;20044;-43
2022/03/12 03:08:06;;;;;;;12.52;6.78;;;10.90;29.30;;;;;;5022402;28;20049;-43
2022/03/12 03:10:35;;;;;;;11.07;6.57;;;10.90;29.40;;;;;;5024043;28;20064;-44
2022/03/12 03:13:22;;;;;;;13.27;6.85;;;10.90;29.50;;;;;;5023871;28;20049;-42
2022/03/12 03:15:53;;;;;;;13.63;6.70;;;10.90;29.50;;;;;;5022025;28;20058;-42
2022/03/12 03:18:23;;;;;;;11.57;7.28;;;10.80;29.50;;;;;;5022764;28;20084;-42
2022/03/12 03:20:52;;;;;;;10.32;6.20;;;10.80;29.40;;;;;;5023164;28;20061;-43
2022/03/12 03:23:22;;;;;;;11.18;6.50;;;10.80;29.50;;;;;;5020533;28;20042;-42
2022/03/12 03:25:50;;;;;;;10.50;5.90;;;10.80;29.50;;;;;;5022985;28;20057;-43
2022/03/12 03:28:19;;;;;;;10.15;5.68;;;10.80;29.50;;;;;;5021130;28;20049;-43
2022/03/12 03:30:47;;;;;;;11.85;6.60;;;10.80;29.50;;;;;;5024038;28;20060;-43
2022/03/12 03:33:18;;;;;;;15.77;6.32;;;10.80;29.60;;;;;;5021236;28;20045;-42
2022/03/12 03:35:46;;;;;;;12.43;6.22;;;10.80;29.60;;;;;;5018208;28;20060;-43
2022/03/12 03:38:14;;;;;;;10.90;6.20;;;10.80;29.60;;;;;;5022609;28;20061;-43
2022/03/12 03:40:43;;;;;;;12.88;6.20;;;10.80;29.70;;;;;;5023349;28;20057;-48
2022/03/12 03:43:13;;;;;;;11.98;6.97;;;10.80;29.60;;;;;;5023899;28;20057;-43
2022/03/12 03:45:43;;;;;;;11.18;6.47;;;10.80;29.60;;;;;;5018872;28;20053;-43
2022/03/12 03:48:13;;;;;;;15.68;7.30;;;10.70;29.70;;;;;;5019767;28;20060;-43
2022/03/12 03:50:40;;;;;;;14.50;6.60;;;10.70;29.70;;;;;;5021856;28;20050;-43
2022/03/12 03:53:11;;;;;;;10.73;5.93;;;10.70;29.70;;;;;;5023448;28;20053;-43
2022/03/12 03:55:38;;;;;;;12.63;6.70;;;10.70;29.70;;;;;;5021126;28;20057;-43
2022/03/12 03:58:06;;;;;;;10.70;6.22;;;10.70;29.80;;;;;;5023188;28;20076;-45
2022/03/12 04:00:33;;;;;;;13.77;6.53;;;10.70;29.80;;;;;;5021333;28;20049;-43
2022/03/12 04:03:02;;;;;;;13.73;6.38;;;10.70;29.90;;;;;;5024334;28;20163;-43
2022/03/12 04:05:31;;;;;;;14.65;6.97;;;10.70;29.90;;;;;;5019196;28;20049;-48
2022/03/12 04:08:00;;;;;;;15.15;6.82;;;10.70;29.90;;;;;;5020990;28;20091;-42
2022/03/12 04:10:28;;;;;;;10.23;5.82;;;10.70;29.90;;;;;;5023037;28;20061;-43
2022/03/12 04:12:57;;;;;;;11.75;6.50;;;10.70;30.00;;;;;;5022456;28;20042;-43
2022/03/12 04:15:24;;;;;;;12.45;5.93;;;10.70;30.00;;;;;;5020394;28;20057;-42
2022/03/12 04:17:53;;;;;;;12.32;6.70;;;10.70;30.00;;;;;;5022252;28;20060;-44
2022/03/12 04:20:23;;;;;;;13.77;6.38;;;10.70;30.00;;;;;;5020370;28;20068;-43
2022/03/12 04:22:52;;;;;;;11.30;6.68;;;10.70;30.00;;;;;;5023327;28;20054;-43
2022/03/12 04:25:21;;;;;;;12.93;7.10;;;10.60;30.10;;;;;;5020386;28;20056;-43
2022/03/12 04:27:49;;;;;;;13.15;7.28;;;10.60;30.10;;;;;;5020734;28;20476;-42
2022/03/12 04:30:18;;;;;;;14.00;7.47;;;10.60;30.10;;;;;;5020938;28;20053;-45
2022/03/12 04:32:46;;;;;;;12.10;7.22;;;10.60;30.40;;;;;;5021823;28;20057;-43
2022/03/12 04:35:16;;;;;;;18.10;7.45;;;10.60;30.50;;;;;;5017521;28;20060;-48
2022/03/12 04:37:45;;;;;;;13.85;6.43;;;10.60;30.40;;;;;;5018978;28;20514;-45
2022/03/12 04:40:20;;;;;;;10.70;6.53;;;10.60;30.50;;;;;;5019031;28;20053;-42
2022/03/12 04:42:48;;;;;;;11.57;6.72;;;10.60;30.60;;;;;;5021840;28;20053;-43
2022/03/12 04:45:19;;;;;;;11.75;7.03;;;10.50;30.60;;;;;;5018691;28;20052;-43
2022/03/12 04:47:49;;;;;;;11.98;6.82;;;10.50;30.80;;;;;;5020521;28;20057;-43
2022/03/12 04:50:18;;;;;;;12.85;6.78;;;10.50;31.00;;;;;;5018453;28;20053;-43
2022/03/12 04:52:51;;;;;;;14.77;7.13;;;10.50;31.00;;;;;;5019306;28;20049;-43
2022/03/12 04:55:20;;;;;;;14.52;6.80;;;10.50;31.10;;;;;;5019575;28;20053;-45
2022/03/12 04:57:48;;;;;;;10.98;6.75;;;10.50;31.20;;;;;;5022397;28;20062;-43
2022/03/12 05:00:19;;;;;;;13.27;7.10;;;10.50;31.40;;;;;;5021316;28;20529;-43
2022/03/12 05:02:47;;;;;;;11.80;6.53;;;10.50;31.50;;;;;;5021793;28;20409;-43
2022/03/12 05:05:16;;;;;;;23.35;11.38;;;10.50;31.50;;;;;;5012570;28;20049;-42
2022/03/12 05:07:46;;;;;;;30.25;14.50;;;10.50;31.70;;;;;;5017827;28;20053;-43
2022/03/12 05:10:15;;;;;;;14.60;8.77;;;10.40;31.70;;;;;;5022059;28;20414;-43
2022/03/12 05:12:43;;;;;;;13.77;7.65;;;10.40;31.70;;;;;;5020637;28;20053;-44
2022/03/12 05:15:14;;;;;;;12.43;7.07;;;10.40;31.80;;;;;;5017202;28;20061;-44
2022/03/12 05:17:45;;;;;;;17.42;7.53;;;10.40;31.90;;;;;;5015828;28;20072;-45
2022/03/12 05:20:13;;;;;;;13.48;6.57;;;10.40;32.10;;;;;;5021203;28;20053;-43
2022/03/12 05:22:41;;;;;;;12.57;6.80;;;10.40;32.10;;;;;;5023092;28;20053;-44
2022/03/12 05:25:12;;;;;;;12.35;7.00;;;10.40;32.30;;;;;;5024644;28;20054;-44
2022/03/12 05:27:39;;;;;;;11.63;6.25;;;10.40;32.20;;;;;;5020670;28;20123;-42
2022/03/12 05:30:09;;;;;;;16.40;8.15;;;10.30;32.40;;;;;;5024190;28;21184;-43
2022/03/12 05:32:36;;;;;;;19.73;9.57;;;10.30;32.60;;;;;;5023064;28;20045;-43
2022/03/12 05:35:04;;;;;;;17.73;8.63;;;10.30;32.60;;;;;;5023027;28;20065;-43
2022/03/12 05:37:32;;;;;;;14.40;7.35;;;10.30;32.70;;;;;;5023623;28;20056;-43
2022/03/12 05:40:00;;;;;;;12.63;6.65;;;10.30;32.80;;;;;;5023843;28;20053;-43
2022/03/12 05:42:29;;;;;;;12.18;6.35;;;10.30;32.90;;;;;;5024753;28;20053;-43
2022/03/12 05:44:57;;;;;;;16.17;6.72;;;10.30;33.00;;;;;;5024413;28;20056;-42
2022/03/12 05:47:24;;;;;;;15.07;6.95;;;10.30;33.10;;;;;;5022185;28;20053;-44
2022/03/12 05:49:53;;;;;;;13.57;6.68;;;10.30;33.10;;;;;;5020338;28;20049;-43
2022/03/12 05:52:21;;;;;;;14.25;6.90;;;10.30;33.10;;;;;;5019432;28;20493;-42
2022/03/12 05:54:49;;;;;;;11.98;6.07;;;10.30;33.10;;;;;;5020101;28;20413;-43
2022/03/12 05:57:16;;;;;;;10.57;6.43;;;10.30;33.10;;;;;;5020294;28;20061;-42
2022/03/12 05:59:49;;;;;;;14.50;6.80;;;10.30;33.10;;;;;;5017525;28;20053;-43
2022/03/12 06:02:17;;;;;;;11.88;7.30;;;10.30;33.30;;;;;;5020384;28;20049;-44
2022/03/12 06:04:45;;;;;;;18.85;8.40;;;10.30;33.20;;;;;;5018295;28;20046;-43
2022/03/12 06:07:12;;;;;;;14.15;7.65;;;10.30;33.40;;;;;;5022084;28;20543;-43
2022/03/12 06:09:40;;;;;;;10.45;6.70;;;10.30;33.40;;;;;;5020671;28;20061;-43
2022/03/12 06:12:09;;;;;;;13.68;6.88;;;10.30;33.40;;;;;;5024200;28;20060;-43
2022/03/12 06:14:38;;;;;;;11.70;6.88;;;10.20;33.90;;;;;;5019914;28;20659;-43
2022/03/12 06:17:08;;;;;;;13.30;6.72;;;10.30;33.50;;;;;;5018475;28;20049;-43
2022/03/12 06:19:35;;;;;;;12.57;6.65;;;10.30;33.50;;;;;;5019196;28;20049;-44
2022/03/12 06:22:03;;;;;;;15.23;6.75;;;10.20;33.60;;;;;;5021026;28;20049;-43
2022/03/12 06:24:30;;;;;;;14.20;6.60;;;10.20;33.60;;;;;;5020044;28;20509;-42
2022/03/12 06:26:58;;;;;;;18.02;7.22;;;10.20;33.90;;;;;;5018425;28;20060;-43
2022/03/12 06:29:25;;;;;;;15.73;6.80;;;10.20;34.10;;;;;;5016286;28;20065;-43
2022/03/12 06:31:53;;;;;;;13.98;7.10;;;10.20;34.00;;;;;;5020030;28;20060;-43
2022/03/12 06:34:23;;;;;;;13.48;6.75;;;10.20;34.20;;;;;;5011966;28;20056;-43
2022/03/12 06:36:51;;;;;;;20.08;7.30;;;10.20;34.40;;;;;;5019930;28;20057;-42
2022/03/12 06:39:18;;;;;;;17.33;6.90;;;10.20;34.60;;;;;;5015485;28;20049;-43
2022/03/12 06:41:46;;;;;;;11.82;6.80;;;10.20;34.50;;;;;;5015995;28;20433;-43
2022/03/12 06:44:17;;;;;;;13.77;7.15;;;10.10;34.70;;;;;;5013868;28;20508;-42
2022/03/12 06:46:45;;;;;;;15.25;7.32;;;10.10;34.80;;;;;;5017659;28;20494;-44
2022/03/12 06:49:13;;;;;;;12.25;6.30;;;10.10;35.00;;;;;;5013878;28;20577;-43
2022/03/12 06:51:42;;;;;;;12.18;6.25;;;10.10;34.90;;;;;;5013144;28;20060;-43
2022/03/12 06:54:10;;;;;;;14.70;6.82;;;10.10;35.00;;;;;;5012407;28;20409;-43
2022/03/12 06:56:39;;;;;;;14.00;6.40;;;10.10;35.10;;;;;;5015297;28;20050;-46
2022/03/12 06:59:07;;;;;;;15.48;7.35;;;10.10;35.20;;;;;;5018714;28;20056;-42
2022/03/12 07:01:35;;;;;;;10.32;6.10;;;10.20;35.50;;;;;;5014622;28;20060;-45
2022/03/12 07:04:02;;;;;;;12.18;6.05;;;10.20;35.40;;;;;;5015175;28;20045;-43
2022/03/12 07:06:30;;;;;;;11.77;6.38;;;10.20;35.50;;;;;;5015816;28;20073;-43
2022/03/12 07:08:59;;;;;;;14.55;6.85;;;10.20;35.60;;;;;;5019959;28;20072;-42
2022/03/12 07:11:28;;;;;;;15.68;6.88;;;10.20;35.70;;;;;;5016562;28;20053;-47
2022/03/12 07:13:55;;;;;;;17.90;7.45;;;10.20;35.70;;;;;;5013684;28;20984;-42
2022/03/12 07:16:23;;;;;;;14.73;6.90;;;10.20;35.90;;;;;;5023618;28;20053;-43
2022/03/12 07:18:51;;;;;;;13.82;7.07;;;10.30;36.00;;;;;;5022753;28;20522;-43
2022/03/12 07:21:18;;;;;;;11.10;6.47;;;10.30;36.00;;;;;;5024324;28;20060;-44
2022/03/12 07:23:46;;;;;;;11.73;6.40;;;10.30;36.00;;;;;;5019554;28;20061;-43
2022/03/12 07:26:15;;;;;;;16.42;6.65;;;10.30;36.10;;;;;;5020236;28;20405;-43
2022/03/12 07:28:43;;;;;;;9.60;6.10;;;10.30;36.20;;;;;;5022450;28;20308;-43
2022/03/12 07:31:11;;;;;;;13.68;6.82;;;10.40;36.30;;;;;;5023890;28;20046;-43
2022/03/12 07:33:38;;;;;;;17.77;7.00;;;10.40;36.50;;;;;;5023265;28;20064;-43
2022/03/12 07:36:06;;;;;;;14.00;7.38;;;10.40;36.70;;;;;;5022313;28;20057;-42
2022/03/12 07:38:34;;;;;;;13.60;6.97;;;10.50;37.10;;;;;;5020592;28;20049;-47
2022/03/12 07:41:02;;;;;;;16.98;6.60;;;10.50;37.20;;;;;;5023058;28;20076;-43
2022/03/12 07:43:31;;;;;;;12.80;7.50;;;10.50;37.20;;;;;;5022733;28;20116;-43
2022/03/12 07:45:59;;;;;;;12.68;6.65;;;10.60;37.30;;;;;;5022409;28;20060;-48
2022/03/12 07:48:27;;;;;;;13.43;7.28;;;10.60;37.40;;;;;;5023066;28;20056;-44
2022/03/12 07:50:55;;;;;;;15.70;7.78;;;10.60;37.50;;;;;;5023626;28;20065;-43
2022/03/12 07:53:23;;;;;;;13.48;7.00;;;10.70;37.60;;;;;;5023494;28;20049;-42
2022/03/12 07:55:51;;;;;;;12.98;7.15;;;10.70;37.80;;;;;;5022912;28;20053;-43
2022/03/12 07:58:18;;;;;;;11.52;7.38;;;10.70;37.80;;;;;;5022457;28;20053;-43
2022/03/12 08:00:47;;;;;;;12.13;7.43;;;10.80;38.00;;;;;;5022588;28;20418;-43
2022/03/12 08:03:16;;;;;;;12.52;7.20;;;10.80;38.00;;;;;;5023401;28;20049;-43
2022/03/12 08:05:43;;;;;;;10.73;6.82;;;10.90;38.40;;;;;;5023278;28;20060;-43
2022/03/12 08:08:11;;;;;;;14.70;7.38;;;10.90;39.10;;;;;;5023356;28;20053;-43
2022/03/12 08:13:21;;;;;;;15.88;7.85;;;11.00;39.50;;;;;;5021172;28;20068;-43
2022/03/12 08:15:50;;;;;;;14.50;8.13;;;11.10;39.90;;;;;;5022709;28;20046;-44
2022/03/12 08:18:17;;;;;;;11.70;6.70;;;11.10;40.10;;;;;;5023160;28;20061;-42
2022/03/12 08:20:45;;;;;;;12.35;7.07;;;11.20;40.20;;;;;;5021679;28;20440;-45
2022/03/12 08:23:13;;;;;;;12.85;7.13;;;11.30;40.20;;;;;;5023649;28;20056;-44
2022/03/12 08:25:40;;;;;;;12.55;7.38;;;11.30;40.60;;;;;;5010840;28;20307;-42
2022/03/12 08:28:08;;;;;;;12.48;6.97;;;11.40;40.30;;;;;;5011839;28;20068;-42
2022/03/12 08:30:36;;;;;;;16.30;7.55;;;11.50;40.50;;;;;;5015905;28;20053;-42
2022/03/12 08:33:05;;;;;;;16.38;7.00;;;11.50;40.70;;;;;;5015757;28;20057;-45
2022/03/12 08:35:33;;;;;;;27.60;11.90;;;11.60;40.60;;;;;;5017449;28;20050;-42
2022/03/12 08:38:00;;;;;;;21.25;10.90;;;11.70;40.50;;;;;;5018145;28;20072;-42
2022/03/12 08:40:28;;;;;;;14.30;8.02;;;11.80;40.60;;;;;;5021213;28;20057;-42
2022/03/12 08:42:56;;;;;;;13.18;7.47;;;11.80;40.60;;;;;;5017634;28;20053;-45
2022/03/12 08:45:24;;;;;;;16.42;7.70;;;11.90;40.80;;;;;;5016157;28;20057;-42
2022/03/12 08:47:51;;;;;;;12.75;6.95;;;11.90;40.70;;;;;;5016433;28;20060;-42
2022/03/12 08:50:20;;;;;;;11.85;6.90;;;12.00;40.50;;;;;;5015975;28;20068;-42
2022/03/12 08:52:48;;;;;;;12.95;7.30;;;12.10;40.70;;;;;;5012598;28;20057;-42
2022/03/12 08:55:15;;;;;;;12.45;6.70;;;12.10;40.70;;;;;;5010691;28;20474;-43
2022/03/12 08:57:43;;;;;;;14.35;7.57;;;12.20;40.90;;;;;;5012828;28;20061;-42
2022/03/12 09:00:12;;;;;;;15.07;7.47;;;12.30;40.90;;;;;;5011399;28;20056;-42
2022/03/12 09:02:40;;;;;;;14.63;7.75;;;12.30;40.80;;;;;;5018632;28;20140;-42
2022/03/12 09:05:12;;;;;;;14.02;7.72;;;12.40;40.70;;;;;;5015095;28;20405;-42
2022/03/12 09:07:41;;;;;;;14.63;7.85;;;12.40;40.40;;;;;;5020441;28;20049;-45
2022/03/12 09:10:11;;;;;;;12.57;7.70;;;12.50;40.60;;;;;;5017245;28;20061;-42
2022/03/12 09:12:38;;;;;;;14.05;8.10;;;12.50;40.40;;;;;;5017112;28;20066;-42
2022/03/12 09:15:07;;;;;;;12.25;7.60;;;12.60;40.40;;;;;;5016422;28;20060;-44
2022/03/12 09:17:35;;;;;;;14.50;6.80;;;12.60;40.00;;;;;;5015537;28;20045;-42
2022/03/12 09:20:05;;;;;;;16.92;7.25;;;12.70;39.80;;;;;;5011279;28;20060;-42
2022/03/12 09:22:32;;;;;;;10.93;7.18;;;12.80;39.60;;;;;;5016198;28;21695;-42
2022/03/12 09:25:03;;;;;;;15.27;7.70;;;12.80;39.60;;;;;;5011426;28;20497;-44
2022/03/12 09:27:30;;;;;;;13.30;7.03;;;12.90;39.40;;;;;;5014960;28;20061;-43
2022/03/12 09:29:58;;;;;;;14.13;8.00;;;13.00;39.30;;;;;;5014913;28;20061;-42
2022/03/12 09:32:25;;;;;;;12.70;7.40;;;13.00;39.20;;;;;;5020164;28;20057;-42
2022/03/12 09:34:53;;;;;;;13.77;7.22;;;13.10;39.50;;;;;;5011858;28;20053;-42
2022/03/12 09:37:20;;;;;;;11.05;7.22;;;13.10;39.80;;;;;;5008307;28;20064;-44
2022/03/12 09:39:48;;;;;;;14.48;6.80;;;13.20;40.10;;;;;;5010482;28;20052;-44
2022/03/12 09:42:18;;;;;;;12.55;7.30;;;13.30;40.10;;;;;;5015941;28;20056;-42
2022/03/12 09:44:46;;;;;;;13.15;7.18;;;13.40;40.10;;;;;;5017180;28;20087;-42
2022/03/12 09:47:14;;;;;;;10.88;7.28;;;13.50;40.40;;;;;;5010522;28;20049;-45
2022/03/12 09:49:42;;;;;;;13.57;7.05;;;13.50;40.30;;;;;;5018692;28;20414;-44
2022/03/12 09:52:11;;;;;;;10.30;6.85;;;13.60;40.30;;;;;;5009503;28;20068;-43
2022/03/12 09:54:38;;;;;;;12.43;7.13;;;13.70;40.40;;;;;;5010462;28;20409;-42
2022/03/12 09:57:06;;;;;;;12.23;7.32;;;13.70;40.50;;;;;;5014680;28;20049;-45
2022/03/12 09:59:35;;;;;;;10.23;6.65;;;13.80;40.70;;;;;;5001281;28;20057;-43
2022/03/12 10:02:03;;;;;;;12.40;6.40;;;13.90;40.80;;;;;;5011287;28;20045;-42
2022/03/12 10:04:30;;;;;;;12.85;6.60;;;13.90;40.90;;;;;;5014086;28;20057;-44
2022/03/12 10:06:58;;;;;;;10.50;6.45;;;14.00;41.10;;;;;;5014316;28;20041;-44
2022/03/12 10:09:26;;;;;;;11.15;6.65;;;14.10;41.30;;;;;;5012006;28;20049;-43
2022/03/12 10:11:54;;;;;;;11.07;6.72;;;14.20;41.40;;;;;;5016721;28;20049;-42
2022/03/12 10:14:24;;;;;;;10.63;5.47;;;14.20;41.30;;;;;;5018862;28;20061;-43
2022/03/12 10:16:53;;;;;;;13.05;8.38;;;14.30;41.20;;;;;;5016962;28;20083;-43
2022/03/12 10:19:21;;;;;;;50.00;30.90;;;14.40;41.30;;;;;;5014804;28;20053;-43
2022/03/12 10:21:52;;;;;;;17.13;10.38;;;14.40;41.10;;;;;;5015943;28;20539;-43
2022/03/12 10:24:19;;;;;;;26.13;16.38;;;14.50;41.00;;;;;;5012075;28;20421;-43
2022/03/12 10:26:47;;;;;;;23.63;13.82;;;14.60;41.20;;;;;;5011473;28;20094;-44
2022/03/12 10:29:15;;;;;;;44.15;25.67;;;14.60;41.50;;;;;;5011555;28;20054;-43
2022/03/12 10:31:43;;;;;;;581.47;412.55;;;14.70;41.50;;;;;;5012548;28;20531;-44
2022/03/12 10:34:29;;;;;;;136.40;90.72;;;14.70;41.40;;;;;;5009136;28;20057;-45
2022/03/12 10:36:59;;;;;;;24.38;17.10;;;14.70;41.60;;;;;;5004381;28;20107;-43
2022/03/12 10:39:33;;;;;;;18.08;10.65;;;14.80;41.80;;;;;;5012357;28;20053;-43
2022/03/12 10:42:02;;;;;;;14.55;8.73;;;14.80;41.70;;;;;;5017667;28;20410;-42
2022/03/12 10:44:36;;;;;;;12.45;8.00;;;14.80;41.30;;;;;;5018042;28;20053;-42
2022/03/12 10:47:05;;;;;;;13.23;7.95;;;14.80;41.30;;;;;;5019291;28;20056;-43
2022/03/12 10:49:34;;;;;;;11.90;7.75;;;14.80;41.20;;;;;;5020342;28;20502;-42
2022/03/12 10:52:02;;;;;;;16.08;8.25;;;14.90;41.30;;;;;;5019958;28;20061;-44
2022/03/12 10:54:29;;;;;;;16.55;8.48;;;14.90;41.30;;;;;;5018059;28;20053;-43
2022/03/12 10:56:57;;;;;;;16.75;8.65;;;15.00;41.30;;;;;;5019327;28;20053;-44
2022/03/12 10:59:27;;;;;;;14.43;8.80;;;15.10;40.80;;;;;;5013418;28;20057;-45
2022/03/12 11:01:56;;;;;;;15.00;8.90;;;15.10;39.90;;;;;;5008583;28;20064;-45
2022/03/12 11:04:26;;;;;;;12.85;8.48;;;15.20;40.10;;;;;;5011148;28;21275;-43
2022/03/12 11:06:59;;;;;;;12.27;7.85;;;15.20;39.20;;;;;;5013689;28;20053;-44
2022/03/12 11:09:35;;;;;;;12.00;7.18;;;15.30;38.90;;;;;;5011250;28;20060;-43
2022/03/12 11:12:04;;;;;;;14.50;8.43;;;15.30;38.90;;;;;;5011600;28;20057;-43
2022/03/12 11:14:32;;;;;;;14.45;7.72;;;15.30;39.00;;;;;;5014766;28;20682;-46
2022/03/12 11:17:00;;;;;;;13.60;7.75;;;15.40;39.00;;;;;;5013500;28;20492;-43
2022/03/12 11:19:40;;;;;;;12.88;7.72;;;15.40;38.90;;;;;;5010703;28;20058;-44
2022/03/12 11:22:13;;;;;;;12.52;7.50;;;15.40;38.90;;;;;;5021490;28;20049;-43
2022/03/12 11:24:49;;;;;;;11.73;7.93;;;15.40;38.80;;;;;;5021975;28;20057;-43
2022/03/12 11:27:30;;;;;;;13.43;7.68;;;15.40;38.30;;;;;;5022586;28;20486;-46
2022/03/12 11:30:00;;;;;;;14.32;7.72;;;15.50;37.90;;;;;;5023931;28;20413;-43
2022/03/12 11:32:35;;;;;;;15.38;8.35;;;15.50;37.80;;;;;;5022833;28;20060;-43
2022/03/12 11:35:10;;;;;;;12.30;7.85;;;15.60;38.10;;;;;;5021650;28;20069;-43
2022/03/12 11:37:41;;;;;;;14.73;7.63;;;15.60;38.40;;;;;;5022752;28;20057;-45
2022/03/12 11:40:11;;;;;;;14.27;7.78;;;15.60;38.80;;;;;;5022652;28;20485;-46
2022/03/12 11:42:41;;;;;;;12.70;7.82;;;15.70;38.90;;;;;;5021809;28;20065;-44
2022/03/12 11:45:15;;;;;;;9.50;6.80;;;15.70;39.10;;;;;;5021952;28;20049;-42
2022/03/12 11:47:44;;;;;;;12.05;7.57;;;15.80;39.10;;;;;;5023248;28;20080;-43
2022/03/12 11:50:15;;;;;;;13.32;8.07;;;15.80;39.20;;;;;;5021422;28;20053;-43
2022/03/12 11:52:45;;;;;;;15.05;7.78;;;15.90;38.80;;;;;;5023957;28;20509;-44
2022/03/12 11:55:18;;;;;;;9.45;6.97;;;15.90;38.30;;;;;;5020367;28;20057;-43
2022/03/12 11:57:48;;;;;;;10.90;6.70;;;15.90;38.20;;;;;;5021492;28;20049;-44
2022/03/12 12:00:22;;;;;;;11.90;7.00;;;15.90;38.40;;;;;;5023935;28;20057;-43
2022/03/12 12:02:50;;;;;;;17.98;8.48;;;15.90;38.80;;;;;;5021512;28;20413;-43
2022/03/12 12:05:19;;;;;;;15.80;8.00;;;15.90;38.70;;;;;;5021338;28;20521;-43
2022/03/12 12:07:51;;;;;;;12.05;7.60;;;15.90;38.70;;;;;;5020076;28;20064;-42
2022/03/12 12:10:20;;;;;;;11.60;7.05;;;15.90;38.80;;;;;;5021546;28;20049;-43
2022/03/12 12:12:51;;;;;;;10.68;7.15;;;15.90;38.70;;;;;;5023703;28;20060;-43
2022/03/12 12:15:29;;;;;;;11.85;7.22;;;15.90;38.70;;;;;;5022419;28;20057;-43
2022/03/12 12:17:57;;;;;;;12.68;7.20;;;16.00;39.00;;;;;;5021784;28;20413;-43
2022/03/12 12:20:26;;;;;;;11.45;6.75;;;16.00;39.20;;;;;;5021724;28;20053;-42
2022/03/12 12:22:56;;;;;;;10.10;6.65;;;16.10;39.20;;;;;;5019926;28;20053;-45
2022/03/12 12:25:25;;;;;;;11.93;6.75;;;16.10;39.00;;;;;;5013662;28;20508;-44
2022/03/12 12:27:55;;;;;;;18.20;7.25;;;16.10;38.70;;;;;;5020370;28;20418;-44
2022/03/12 12:30:38;;;;;;;11.35;7.50;;;16.20;38.90;;;;;;5022076;28;20112;-42
2022/03/12 12:33:15;;;;;;;14.50;7.45;;;16.20;38.80;;;;;;5022605;28;20058;-42
2022/03/12 12:35:43;;;;;;;10.68;6.07;;;16.20;38.50;;;;;;5020743;28;20061;-45
2022/03/12 12:38:12;;;;;;;11.23;7.00;;;16.30;38.60;;;;;;5023124;28;20414;-42
2022/03/12 12:40:47;;;;;;;14.02;7.95;;;16.30;38.40;;;;;;5018489;28;20064;-42
2022/03/12 12:43:18;;;;;;;13.63;6.78;;;16.30;38.40;;;;;;5020954;28;20052;-42
2022/03/12 12:46:09;;;;;;;10.77;6.60;;;16.30;38.50;;;;;;5020787;28;20053;-42
2022/03/12 12:48:40;;;;;;;10.40;6.35;;;16.30;38.30;;;;;;5019660;28;20060;-45